sensor_id;sensor_type;location;lat;lon;timestamp;P1;P2;P0
83597;PMS5003;73565;45.774;15.892;2024-03-23T00:52:14;49;40;25
83597;PMS5003;73565;45.774;15.892;2024-03-23T00:54:14;49;40;27
83597;PMS5003;73565;45.774;15.892;2024-03-23T00:56:14;44;37;27
83597;PMS5003;73565;45.774;15.892;2024-03-23T00:58:14;45;38;23
83597;PMS5003;73565;45.774;15.892;2024-03-23T01:00:15;43;36;25
83597;PMS5003;73565;45.774;15.892;2024-03-23T01:02:14;43;36;25
83597;PMS5003;73565;45.774;15.892;2024-03-23T01:04:14;43;38;26
83597;PMS5003;73565;45.774;15.892;2024-03-23T01:06:14;36;33;24
83597;PMS5003;73565;45.774;15.892;2024-03-23T01:08:14;36;33;22
83597;PMS5003;73565;45.774;15.892;2024-03-23T01:10:14;47;38;24
83597;PMS5003;73565;45.774;15.892;2024-03-23T01:12:14;38;35;23
83597;PMS5003;73565;45.774;15.892;2024-03-23T01:14:14;46;39;24
83597;PMS5003;73565;45.774;15.892;2024-03-23T01:16:14;44;38;24
83597;PMS5003;73565;45.774;15.892;2024-03-23T01:18:14;43;37;27
83597;PMS5003;73565;45.774;15.892;2024-03-23T01:20:15;45;38;23
83597;PMS5003;73565;45.774;15.892;2024-03-23T01:22:14;45;38;24
83597;PMS5003;73565;45.774;15.892;2024-03-23T01:24:14;45;38;26
83597;PMS5003;73565;45.774;15.892;2024-03-23T01:26:14;37;34;23
83597;PMS5003;73565;45.774;15.892;2024-03-23T01:28:14;41;36;24
83597;PMS5003;73565;45.774;15.892;2024-03-23T01:30:15;38;33;22
83597;PMS5003;73565;45.774;15.892;2024-03-23T01:32:14;44;38;26
83597;PMS5003;73565;45.774;15.892;2024-03-23T01:34:14;36;33;23
83597;PMS5003;73565;45.774;15.892;2024-03-23T01:36:14;37;34;23
83597;PMS5003;73565;45.774;15.892;2024-03-23T01:38:14;37;33;23
83597;PMS5003;73565;45.774;15.892;2024-03-23T01:40:15;32;31;22
83597;PMS5003;73565;45.774;15.892;2024-03-23T01:42:14;35;32;22
83597;PMS5003;73565;45.774;15.892;2024-03-23T01:44:14;34;31;21
83597;PMS5003;73565;45.774;15.892;2024-03-23T01:46:14;34;32;22
83597;PMS5003;73565;45.774;15.892;2024-03-23T01:48:14;39;33;23
83597;PMS5003;73565;45.774;15.892;2024-03-23T01:50:15;27;26;20
83597;PMS5003;73565;45.774;15.892;2024-03-23T01:52:14;38;34;23
83597;PMS5003;73565;45.774;15.892;2024-03-23T01:54:15;34;32;23
83597;PMS5003;73565;45.774;15.892;2024-03-23T01:56:14;35;33;23
83597;PMS5003;73565;45.774;15.892;2024-03-23T01:58:14;39;35;24
83597;PMS5003;73565;45.774;15.892;2024-03-23T02:00:15;40;33;22
83597;PMS5003;73565;45.774;15.892;2024-03-23T02:02:14;45;36;24
83597;PMS5003;73565;45.774;15.892;2024-03-23T02:04:14;36;33;24
83597;PMS5003;73565;45.774;15.892;2024-03-23T02:06:14;32;31;22
83597;PMS5003;73565;45.774;15.892;2024-03-23T02:08:14;48;38;25
83597;PMS5003;73565;45.774;15.892;2024-03-23T02:12:22;33;31;22
83597;PMS5003;73565;45.774;15.892;2024-03-23T02:14:52;45;38;24
83597;PMS5003;73565;45.774;15.892;2024-03-23T02:16:03;37;33;22
83597;PMS5003;73565;45.774;15.892;2024-03-23T02:18:03;32;31;21
83597;PMS5003;73565;45.774;15.892;2024-03-23T02:20:03;35;33;22
83597;PMS5003;73565;45.774;15.892;2024-03-23T02:22:03;35;32;22
83597;PMS5003;73565;45.774;15.892;2024-03-23T02:24:03;43;36;24
83597;PMS5003;73565;45.774;15.892;2024-03-23T02:26:03;40;35;21
83597;PMS5003;73565;45.774;15.892;2024-03-23T02:28:03;35;33;23
83597;PMS5003;73565;45.774;15.892;2024-03-23T02:30:03;41;36;25
83597;PMS5003;73565;45.774;15.892;2024-03-23T02:32:39;63;54;35
83597;PMS5003;73565;45.774;15.892;2024-03-23T02:34:08;34;32;23
83597;PMS5003;73565;45.774;15.892;2024-03-23T02:36:08;34;32;20
83597;PMS5003;73565;45.774;15.892;2024-03-23T02:38:08;31;30;23
83597;PMS5003;73565;45.774;15.892;2024-03-23T02:40:43;40;35;24
83597;PMS5003;73565;45.774;15.892;2024-03-23T02:42:30;46;37;24
83597;PMS5003;73565;45.774;15.892;2024-03-23T02:44:30;39;35;22
83597;PMS5003;73565;45.774;15.892;2024-03-23T02:46:30;37;33;23
83597;PMS5003;73565;45.774;15.892;2024-03-23T02:48:30;40;33;23
83597;PMS5003;73565;45.774;15.892;2024-03-23T02:50:30;40;34;22
83597;PMS5003;73565;45.774;15.892;2024-03-23T02:52:30;45;37;24
83597;PMS5003;73565;45.774;15.892;2024-03-23T02:54:30;33;31;20
83597;PMS5003;73565;45.774;15.892;2024-03-23T02:56:31;38;34;24
83597;PMS5003;73565;45.774;15.892;2024-03-23T02:58:30;31;28;20
83597;PMS5003;73565;45.774;15.892;2024-03-23T03:00:30;40;35;23
83597;PMS5003;73565;45.774;15.892;2024-03-23T03:02:30;34;32;22
83597;PMS5003;73565;45.774;15.892;2024-03-23T03:04:30;35;33;22
83597;PMS5003;73565;45.774;15.892;2024-03-23T03:06:30;33;30;22
83597;PMS5003;73565;45.774;15.892;2024-03-23T03:08:30;37;33;22
83597;PMS5003;73565;45.774;15.892;2024-03-23T03:10:30;33;31;21
83597;PMS5003;73565;45.774;15.892;2024-03-23T03:12:30;37;33;23
83597;PMS5003;73565;45.774;15.892;2024-03-23T03:14:30;38;34;22
83597;PMS5003;73565;45.774;15.892;2024-03-23T03:16:30;35;33;22
83597;PMS5003;73565;45.774;15.892;2024-03-23T03:18:30;32;30;18
83597;PMS5003;73565;45.774;15.892;2024-03-23T03:20:30;38;34;23
83597;PMS5003;73565;45.774;15.892;2024-03-23T03:22:30;41;33;21
83597;PMS5003;73565;45.774;15.892;2024-03-23T03:24:30;37;33;23
83597;PMS5003;73565;45.774;15.892;2024-03-23T03:26:30;34;32;21
83597;PMS5003;73565;45.774;15.892;2024-03-23T03:28:30;38;34;23
83597;PMS5003;73565;45.774;15.892;2024-03-23T03:30:30;32;30;21
83597;PMS5003;73565;45.774;15.892;2024-03-23T03:32:30;30;30;21
83597;PMS5003;73565;45.774;15.892;2024-03-23T03:34:30;38;33;23
83597;PMS5003;73565;45.774;15.892;2024-03-23T03:36:30;32;31;22
83597;PMS5003;73565;45.774;15.892;2024-03-23T03:38:30;36;32;22
83597;PMS5003;73565;45.774;15.892;2024-03-23T03:40:30;33;32;22
83597;PMS5003;73565;45.774;15.892;2024-03-23T03:42:30;34;30;21
83597;PMS5003;73565;45.774;15.892;2024-03-23T03:44:30;33;31;21
83597;PMS5003;73565;45.774;15.892;2024-03-23T03:46:30;31;30;22
83597;PMS5003;73565;45.774;15.892;2024-03-23T03:48:30;24;23;19
83597;PMS5003;73565;45.774;15.892;2024-03-23T03:50:30;35;32;23
83597;PMS5003;73565;45.774;15.892;2024-03-23T03:52:30;30;30;19
83597;PMS5003;73565;45.774;15.892;2024-03-23T03:54:30;32;28;20
83597;PMS5003;73565;45.774;15.892;2024-03-23T03:56:30;39;33;23
83597;PMS5003;73565;45.774;15.892;2024-03-23T03:58:30;29;29;22
83597;PMS5003;73565;45.774;15.892;2024-03-23T04:00:30;34;30;21
83597;PMS5003;73565;45.774;15.892;2024-03-23T04:02:27;44;34;23
83597;PMS5003;73565;45.774;15.892;2024-03-23T04:04:27;37;33;23
83597;PMS5003;73565;45.774;15.892;2024-03-23T04:06:27;30;30;20
83597;PMS5003;73565;45.774;15.892;2024-03-23T04:08:27;30;30;21
83597;PMS5003;73565;45.774;15.892;2024-03-23T04:10:27;35;32;22
83597;PMS5003;73565;45.774;15.892;2024-03-23T04:12:27;30;30;20
83597;PMS5003;73565;45.774;15.892;2024-03-23T04:14:27;21;20;18
83597;PMS5003;73565;45.774;15.892;2024-03-23T04:16:34;31;30;20
83597;PMS5003;73565;45.774;15.892;2024-03-23T04:18:27;29;27;20
83597;PMS5003;73565;45.774;15.892;2024-03-23T04:20:27;27;26;19
83597;PMS5003;73565;45.774;15.892;2024-03-23T04:22:27;33;30;21
83597;PMS5003;73565;45.774;15.892;2024-03-23T04:24:27;24;23;15
83597;PMS5003;73565;45.774;15.892;2024-03-23T04:26:27;25;25;20
83597;PMS5003;73565;45.774;15.892;2024-03-23T04:28:27;30;29;18
83597;PMS5003;73565;45.774;15.892;2024-03-23T04:30:27;29;29;20
83597;PMS5003;73565;45.774;15.892;2024-03-23T04:32:27;33;30;18
83597;PMS5003;73565;45.774;15.892;2024-03-23T04:34:27;34;31;20
83597;PMS5003;73565;45.774;15.892;2024-03-23T04:37:26;37;34;23
83597;PMS5003;73565;45.774;15.892;2024-03-23T04:57:54;27;26;20
83597;PMS5003;73565;45.774;15.892;2024-03-23T04:59:29;28;28;21
83597;PMS5003;73565;45.774;15.892;2024-03-23T05:01:29;22;21;16
83597;PMS5003;73565;45.774;15.892;2024-03-23T05:03:29;26;24;20
83597;PMS5003;73565;45.774;15.892;2024-03-23T05:05:29;23;22;15
83597;PMS5003;73565;45.774;15.892;2024-03-23T05:07:29;23;23;17
83597;PMS5003;73565;45.774;15.892;2024-03-23T05:09:29;16;14;9
83597;PMS5003;73565;45.774;15.892;2024-03-23T05:11:29;26;26;19
83597;PMS5003;73565;45.774;15.892;2024-03-23T05:13:29;22;22;17
83597;PMS5003;73565;45.774;15.892;2024-03-23T05:15:29;24;24;16
83597;PMS5003;73565;45.774;15.892;2024-03-23T05:17:29;29;27;20
83597;PMS5003;73565;45.774;15.892;2024-03-23T05:19:29;21;21;16
83597;PMS5003;73565;45.774;15.892;2024-03-23T05:21:29;25;25;17
83597;PMS5003;73565;45.774;15.892;2024-03-23T05:23:29;22;22;17
83597;PMS5003;73565;45.774;15.892;2024-03-23T05:25:29;24;22;16
83597;PMS5003;73565;45.774;15.892;2024-03-23T05:27:29;24;24;17
83597;PMS5003;73565;45.774;15.892;2024-03-23T05:29:59;44;41;26
83597;PMS5003;73565;45.774;15.892;2024-03-23T05:31:43;23;22;14
83597;PMS5003;73565;45.774;15.892;2024-03-23T05:33:43;19;19;16
83597;PMS5003;73565;45.774;15.892;2024-03-23T05:35:43;27;24;17
83597;PMS5003;73565;45.774;15.892;2024-03-23T05:37:43;24;21;16
83597;PMS5003;73565;45.774;15.892;2024-03-23T05:39:43;24;23;17
83597;PMS5003;73565;45.774;15.892;2024-03-23T05:41:43;24;24;18
83597;PMS5003;73565;45.774;15.892;2024-03-23T05:43:43;23;22;17
83597;PMS5003;73565;45.774;15.892;2024-03-23T05:45:43;24;22;18
83597;PMS5003;73565;45.774;15.892;2024-03-23T05:47:43;23;19;15
83597;PMS5003;73565;45.774;15.892;2024-03-23T05:49:43;26;25;19
83597;PMS5003;73565;45.774;15.892;2024-03-23T05:51:43;19;19;15
83597;PMS5003;73565;45.774;15.892;2024-03-23T05:53:43;19;16;14
83597;PMS5003;73565;45.774;15.892;2024-03-23T05:55:43;26;25;16
83597;PMS5003;73565;45.774;15.892;2024-03-23T05:57:43;23;22;17
83597;PMS5003;73565;45.774;15.892;2024-03-23T05:59:43;24;24;18
83597;PMS5003;73565;45.774;15.892;2024-03-23T06:01:43;23;23;16
83597;PMS5003;73565;45.774;15.892;2024-03-23T06:03:43;23;23;17
83597;PMS5003;73565;45.774;15.892;2024-03-23T06:05:43;6;5;5
83597;PMS5003;73565;45.774;15.892;2024-03-23T06:07:43;23;23;17
83597;PMS5003;73565;45.774;15.892;2024-03-23T06:09:43;23;22;17
83597;PMS5003;73565;45.774;15.892;2024-03-23T06:11:43;18;18;14
83597;PMS5003;73565;45.774;15.892;2024-03-23T06:13:43;21;21;14
83597;PMS5003;73565;45.774;15.892;2024-03-23T06:15:43;18;18;15
83597;PMS5003;73565;45.774;15.892;2024-03-23T06:18:16;29;27;18
83597;PMS5003;73565;45.774;15.892;2024-03-23T06:19:24;22;21;15
83597;PMS5003;73565;45.774;15.892;2024-03-23T06:21:24;11;11;5
83597;PMS5003;73565;45.774;15.892;2024-03-23T06:23:24;24;24;17
83597;PMS5003;73565;45.774;15.892;2024-03-23T06:25:24;16;15;13
83597;PMS5003;73565;45.774;15.892;2024-03-23T06:27:24;20;20;14
83597;PMS5003;73565;45.774;15.892;2024-03-23T06:29:24;20;19;15
83597;PMS5003;73565;45.774;15.892;2024-03-23T06:31:24;21;21;17
83597;PMS5003;73565;45.774;15.892;2024-03-23T06:33:24;25;23;15
83597;PMS5003;73565;45.774;15.892;2024-03-23T06:35:24;22;21;14
83597;PMS5003;73565;45.774;15.892;2024-03-23T06:37:24;20;20;16
83597;PMS5003;73565;45.774;15.892;2024-03-23T06:39:24;21;21;14
83597;PMS5003;73565;45.774;15.892;2024-03-23T06:41:24;25;23;17
83597;PMS5003;73565;45.774;15.892;2024-03-23T06:43:36;23;22;15
83597;PMS5003;73565;45.774;15.892;2024-03-23T06:45:20;19;19;13
83597;PMS5003;73565;45.774;15.892;2024-03-23T06:47:20;19;19;13
83597;PMS5003;73565;45.774;15.892;2024-03-23T06:49:20;18;16;10
83597;PMS5003;73565;45.774;15.892;2024-03-23T06:51:20;19;18;12
83597;PMS5003;73565;45.774;15.892;2024-03-23T06:53:20;19;19;13
83597;PMS5003;73565;45.774;15.892;2024-03-23T06:55:20;19;18;14
83597;PMS5003;73565;45.774;15.892;2024-03-23T06:57:20;16;15;11
83597;PMS5003;73565;45.774;15.892;2024-03-23T06:59:20;12;11;9
83597;PMS5003;73565;45.774;15.892;2024-03-23T07:01:20;11;9;7
83597;PMS5003;73565;45.774;15.892;2024-03-23T07:03:20;13;13;11
83597;PMS5003;73565;45.774;15.892;2024-03-23T07:05:20;13;12;10
83597;PMS5003;73565;45.774;15.892;2024-03-23T07:07:20;12;12;9
83597;PMS5003;73565;45.774;15.892;2024-03-23T07:09:20;11;11;8
83597;PMS5003;73565;45.774;15.892;2024-03-23T07:11:22;12;11;9
83597;PMS5003;73565;45.774;15.892;2024-03-23T07:13:20;10;10;8
83597;PMS5003;73565;45.774;15.892;2024-03-23T07:15:21;10;10;8
83597;PMS5003;73565;45.774;15.892;2024-03-23T07:17:20;10;9;7
83597;PMS5003;73565;45.774;15.892;2024-03-23T07:19:20;11;11;9
83597;PMS5003;73565;45.774;15.892;2024-03-23T07:21:20;12;12;8
83597;PMS5003;73565;45.774;15.892;2024-03-23T07:23:20;4;4;4
83597;PMS5003;73565;45.774;15.892;2024-03-23T07:25:20;12;12;9
83597;PMS5003;73565;45.774;15.892;2024-03-23T07:27:20;10;9;6
83597;PMS5003;73565;45.774;15.892;2024-03-23T07:29:20;8;7;6
83597;PMS5003;73565;45.774;15.892;2024-03-23T07:31:20;8;8;7
83597;PMS5003;73565;45.774;15.892;2024-03-23T07:33:20;10;10;8
83597;PMS5003;73565;45.774;15.892;2024-03-23T07:35:20;6;6;4
83597;PMS5003;73565;45.774;15.892;2024-03-23T07:37:20;9;9;7
83597;PMS5003;73565;45.774;15.892;2024-03-23T07:39:20;8;8;6
83597;PMS5003;73565;45.774;15.892;2024-03-23T07:41:20;10;10;8
83597;PMS5003;73565;45.774;15.892;2024-03-23T07:43:20;11;11;8
83597;PMS5003;73565;45.774;15.892;2024-03-23T07:45:20;12;12;10
83597;PMS5003;73565;45.774;15.892;2024-03-23T07:47:20;10;9;7
83597;PMS5003;73565;45.774;15.892;2024-03-23T07:49:20;11;10;7
83597;PMS5003;73565;45.774;15.892;2024-03-23T07:51:21;9;9;7
83597;PMS5003;73565;45.774;15.892;2024-03-23T07:53:20;9;8;7
83597;PMS5003;73565;45.774;15.892;2024-03-23T07:55:20;2;2;1
83597;PMS5003;73565;45.774;15.892;2024-03-23T07:57:20;8;7;6
83597;PMS5003;73565;45.774;15.892;2024-03-23T07:59:20;8;8;7
83597;PMS5003;73565;45.774;15.892;2024-03-23T08:01:20;6;6;5
83597;PMS5003;73565;45.774;15.892;2024-03-23T08:02:50;9;9;7
83597;PMS5003;73565;45.774;15.892;2024-03-23T08:04:09;8;8;5
83597;PMS5003;73565;45.774;15.892;2024-03-23T08:06:13;9;9;7
83597;PMS5003;73565;45.774;15.892;2024-03-23T08:08:09;8;8;7
83597;PMS5003;73565;45.774;15.892;2024-03-23T08:10:09;6;6;5
83597;PMS5003;73565;45.774;15.892;2024-03-23T08:12:09;9;9;8
83597;PMS5003;73565;45.774;15.892;2024-03-23T08:13:56;10;10;9
83597;PMS5003;73565;45.774;15.892;2024-03-23T08:15:08;8;8;6
83597;PMS5003;73565;45.774;15.892;2024-03-23T08:17:07;8;8;6
83597;PMS5003;73565;45.774;15.892;2024-03-23T08:19:08;7;7;6
83597;PMS5003;73565;45.774;15.892;2024-03-23T08:21:08;9;8;7
83597;PMS5003;73565;45.774;15.892;2024-03-23T08:23:08;7;7;6
83597;PMS5003;73565;45.774;15.892;2024-03-23T08:25:08;8;8;7
83597;PMS5003;73565;45.774;15.892;2024-03-23T08:27:08;8;7;6
83597;PMS5003;73565;45.774;15.892;2024-03-23T08:29:08;6;6;6
83597;PMS5003;73565;45.774;15.892;2024-03-23T08:31:08;8;8;6
83597;PMS5003;73565;45.774;15.892;2024-03-23T08:33:08;7;7;6
83597;PMS5003;73565;45.774;15.892;2024-03-23T08:35:08;8;7;5
83597;PMS5003;73565;45.774;15.892;2024-03-23T08:37:08;9;8;6
83597;PMS5003;73565;45.774;15.892;2024-03-23T08:39:08;7;7;6
83597;PMS5003;73565;45.774;15.892;2024-03-23T08:41:08;9;8;7
83597;PMS5003;73565;45.774;15.892;2024-03-23T08:43:08;13;12;10
83597;PMS5003;73565;45.774;15.892;2024-03-23T08:45:08;12;12;10
83597;PMS5003;73565;45.774;15.892;2024-03-23T08:47:08;8;8;7
83597;PMS5003;73565;45.774;15.892;2024-03-23T08:49:08;10;10;7
83597;PMS5003;73565;45.774;15.892;2024-03-23T08:51:08;9;8;7
83597;PMS5003;73565;45.774;15.892;2024-03-23T08:53:08;9;9;7
83597;PMS5003;73565;45.774;15.892;2024-03-23T08:55:08;9;9;7
83597;PMS5003;73565;45.774;15.892;2024-03-23T08:57:08;7;7;6
83597;PMS5003;73565;45.774;15.892;2024-03-23T08:59:08;6;6;6
83597;PMS5003;73565;45.774;15.892;2024-03-23T09:01:08;6;6;5
83597;PMS5003;73565;45.774;15.892;2024-03-23T09:03:08;7;7;5
83597;PMS5003;73565;45.774;15.892;2024-03-23T09:05:08;6;6;5
83597;PMS5003;73565;45.774;15.892;2024-03-23T09:07:07;4;4;4
83597;PMS5003;73565;45.774;15.892;2024-03-23T09:09:08;6;6;4
83597;PMS5003;73565;45.774;15.892;2024-03-23T09:11:08;6;5;4
83597;PMS5003;73565;45.774;15.892;2024-03-23T09:13:08;5;5;5
83597;PMS5003;73565;45.774;15.892;2024-03-23T09:15:08;5;5;5
83597;PMS5003;73565;45.774;15.892;2024-03-23T09:17:08;2;2;1
83597;PMS5003;73565;45.774;15.892;2024-03-23T09:19:08;5;4;4
83597;PMS5003;73565;45.774;15.892;2024-03-23T09:21:10;3;3;2
83597;PMS5003;73565;45.774;15.892;2024-03-23T09:23:08;5;4;4
83597;PMS5003;73565;45.774;15.892;2024-03-23T09:25:08;1;1;1
83597;PMS5003;73565;45.774;15.892;2024-03-23T09:27:43;9;7;5
83597;PMS5003;73565;45.774;15.892;2024-03-23T09:29:06;5;5;3
83597;PMS5003;73565;45.774;15.892;2024-03-23T09:31:07;4;4;4
83597;PMS5003;73565;45.774;15.892;2024-03-23T09:33:06;4;4;4
83597;PMS5003;73565;45.774;15.892;2024-03-23T09:35:06;6;6;5
83597;PMS5003;73565;45.774;15.892;2024-03-23T09:37:06;5;5;5
83597;PMS5003;73565;45.774;15.892;2024-03-23T09:39:06;6;6;5
83597;PMS5003;73565;45.774;15.892;2024-03-23T09:41:06;6;6;5
83597;PMS5003;73565;45.774;15.892;2024-03-23T09:43:06;5;4;4
83597;PMS5003;73565;45.774;15.892;2024-03-23T09:45:06;5;5;5
83597;PMS5003;73565;45.774;15.892;2024-03-23T09:47:06;7;6;5
83597;PMS5003;73565;45.774;15.892;2024-03-23T09:48:08;6;6;5
83597;PMS5003;73565;45.774;15.892;2024-03-23T09:49:43;6;6;5
83597;PMS5003;73565;45.774;15.892;2024-03-23T09:51:43;5;5;4
83597;PMS5003;73565;45.774;15.892;2024-03-23T09:53:43;5;5;4
83597;PMS5003;73565;45.774;15.892;2024-03-23T09:55:43;5;5;5
83597;PMS5003;73565;45.774;15.892;2024-03-23T09:57:43;2;2;2
83597;PMS5003;73565;45.774;15.892;2024-03-23T09:59:43;4;4;4
83597;PMS5003;73565;45.774;15.892;2024-03-23T10:01:43;6;6;5
83597;PMS5003;73565;45.774;15.892;2024-03-23T10:03:46;8;7;5
83597;PMS5003;73565;45.774;15.892;2024-03-23T10:05:43;3;3;3
83597;PMS5003;73565;45.774;15.892;2024-03-23T10:07:43;4;4;4
83597;PMS5003;73565;45.774;15.892;2024-03-23T10:09:43;4;4;4
83597;PMS5003;73565;45.774;15.892;2024-03-23T10:11:43;4;4;4
83597;PMS5003;73565;45.774;15.892;2024-03-23T10:13:43;4;4;4
83597;PMS5003;73565;45.774;15.892;2024-03-23T10:15:43;3;3;3
83597;PMS5003;73565;45.774;15.892;2024-03-23T10:17:43;6;5;4
83597;PMS5003;73565;45.774;15.892;2024-03-23T10:19:43;5;5;4
83597;PMS5003;73565;45.774;15.892;2024-03-23T10:21:43;2;2;1
83597;PMS5003;73565;45.774;15.892;2024-03-23T10:23:43;4;4;4
83597;PMS5003;73565;45.774;15.892;2024-03-23T10:25:43;3;3;3
83597;PMS5003;73565;45.774;15.892;2024-03-23T10:27:43;3;3;3
83597;PMS5003;73565;45.774;15.892;2024-03-23T10:29:43;4;4;3
83597;PMS5003;73565;45.774;15.892;2024-03-23T10:31:43;4;4;3
83597;PMS5003;73565;45.774;15.892;2024-03-23T10:33:48;3;3;3
83597;PMS5003;73565;45.774;15.892;2024-03-23T10:35:43;4;4;4
83597;PMS5003;73565;45.774;15.892;2024-03-23T10:37:43;4;4;3
83597;PMS5003;73565;45.774;15.892;2024-03-23T10:39:43;3;3;3
83597;PMS5003;73565;45.774;15.892;2024-03-23T10:41:43;3;3;3
83597;PMS5003;73565;45.774;15.892;2024-03-23T10:43:43;3;3;2
83597;PMS5003;73565;45.774;15.892;2024-03-23T10:45:43;2;2;2
83597;PMS5003;73565;45.774;15.892;2024-03-23T10:47:43;3;3;2
83597;PMS5003;73565;45.774;15.892;2024-03-23T10:49:43;4;4;4
83597;PMS5003;73565;45.774;15.892;2024-03-23T10:51:43;4;4;3
83597;PMS5003;73565;45.774;15.892;2024-03-23T10:53:43;5;5;5
83597;PMS5003;73565;45.774;15.892;2024-03-23T10:55:43;3;3;3
83597;PMS5003;73565;45.774;15.892;2024-03-23T10:57:43;4;4;3
83597;PMS5003;73565;45.774;15.892;2024-03-23T10:59:43;5;5;4
83597;PMS5003;73565;45.774;15.892;2024-03-23T11:03:44;4;4;4
83597;PMS5003;73565;45.774;15.892;2024-03-23T11:05:43;4;4;4
83597;PMS5003;73565;45.774;15.892;2024-03-23T11:07:43;3;3;3
83597;PMS5003;73565;45.774;15.892;2024-03-23T11:09:43;4;4;4
83597;PMS5003;73565;45.774;15.892;2024-03-23T11:11:43;3;3;2
83597;PMS5003;73565;45.774;15.892;2024-03-23T11:13:43;3;3;3
83597;PMS5003;73565;45.774;15.892;2024-03-23T11:15:43;6;5;4
83597;PMS5003;73565;45.774;15.892;2024-03-23T11:17:43;5;4;4
83597;PMS5003;73565;45.774;15.892;2024-03-23T11:19:43;5;4;4
83597;PMS5003;73565;45.774;15.892;2024-03-23T11:21:55;4;4;4
83597;PMS5003;73565;45.774;15.892;2024-03-23T11:23:43;4;4;3
83597;PMS5003;73565;45.774;15.892;2024-03-23T11:25:43;3;3;3
83597;PMS5003;73565;45.774;15.892;2024-03-23T11:27:43;6;6;4
83597;PMS5003;73565;45.774;15.892;2024-03-23T11:29:43;6;6;4
83597;PMS5003;73565;45.774;15.892;2024-03-23T11:31:43;4;4;3
83597;PMS5003;73565;45.774;15.892;2024-03-23T11:33:43;4;4;3
83597;PMS5003;73565;45.774;15.892;2024-03-23T11:35:43;4;4;4
83597;PMS5003;73565;45.774;15.892;2024-03-23T11:37:43;5;5;4
83597;PMS5003;73565;45.774;15.892;2024-03-23T11:39:43;5;5;5
83597;PMS5003;73565;45.774;15.892;2024-03-23T11:41:49;4;4;4
83597;PMS5003;73565;45.774;15.892;2024-03-23T11:43:43;4;4;4
83597;PMS5003;73565;45.774;15.892;2024-03-23T11:45:43;6;5;4
83597;PMS5003;73565;45.774;15.892;2024-03-23T11:47:43;1;1;1
83597;PMS5003;73565;45.774;15.892;2024-03-23T11:49:43;6;4;3
83597;PMS5003;73565;45.774;15.892;2024-03-23T11:51:43;5;5;4
83597;PMS5003;73565;45.774;15.892;2024-03-23T11:53:43;6;6;5
83597;PMS5003;73565;45.774;15.892;2024-03-23T11:55:46;4;4;4
83597;PMS5003;73565;45.774;15.892;2024-03-23T11:57:43;3;3;3
83597;PMS5003;73565;45.774;15.892;2024-03-23T11:59:43;7;7;6
83597;PMS5003;73565;45.774;15.892;2024-03-23T12:01:43;4;4;3
83597;PMS5003;73565;45.774;15.892;2024-03-23T12:03:43;2;2;2
83597;PMS5003;73565;45.774;15.892;2024-03-23T12:05:47;3;3;3
83597;PMS5003;73565;45.774;15.892;2024-03-23T12:07:43;5;5;5
83597;PMS5003;73565;45.774;15.892;2024-03-23T12:09:43;4;4;4
83597;PMS5003;73565;45.774;15.892;2024-03-23T12:11:43;4;3;3
83597;PMS5003;73565;45.774;15.892;2024-03-23T12:13:43;5;5;3
83597;PMS5003;73565;45.774;15.892;2024-03-23T12:15:43;5;5;4
83597;PMS5003;73565;45.774;15.892;2024-03-23T12:17:43;3;3;3
83597;PMS5003;73565;45.774;15.892;2024-03-23T12:19:43;4;4;4
83597;PMS5003;73565;45.774;15.892;2024-03-23T12:21:43;4;4;3
83597;PMS5003;73565;45.774;15.892;2024-03-23T12:23:43;8;8;8
83597;PMS5003;73565;45.774;15.892;2024-03-23T12:25:43;10;10;9
83597;PMS5003;73565;45.774;15.892;2024-03-23T12:27:43;10;10;9
83597;PMS5003;73565;45.774;15.892;2024-03-23T12:29:43;8;8;7
83597;PMS5003;73565;45.774;15.892;2024-03-23T12:31:43;4;4;4
83597;PMS5003;73565;45.774;15.892;2024-03-23T12:33:43;7;6;6
83597;PMS5003;73565;45.774;15.892;2024-03-23T12:35:43;6;5;4
83597;PMS5003;73565;45.774;15.892;2024-03-23T12:37:43;7;7;6
83597;PMS5003;73565;45.774;15.892;2024-03-23T12:39:43;18;17;14
83597;PMS5003;73565;45.774;15.892;2024-03-23T12:41:43;6;6;5
83597;PMS5003;73565;45.774;15.892;2024-03-23T12:43:43;7;7;6
83597;PMS5003;73565;45.774;15.892;2024-03-23T12:45:43;7;7;7
83597;PMS5003;73565;45.774;15.892;2024-03-23T12:47:43;6;5;5
83597;PMS5003;73565;45.774;15.892;2024-03-23T12:49:43;11;9;7
83597;PMS5003;73565;45.774;15.892;2024-03-23T12:51:43;6;6;5
83597;PMS5003;73565;45.774;15.892;2024-03-23T12:53:43;7;6;5
83597;PMS5003;73565;45.774;15.892;2024-03-23T12:55:43;11;10;9
83597;PMS5003;73565;45.774;15.892;2024-03-23T12:57:43;14;14;11
83597;PMS5003;73565;45.774;15.892;2024-03-23T12:59:43;14;13;11
83597;PMS5003;73565;45.774;15.892;2024-03-23T13:01:43;9;9;7
83597;PMS5003;73565;45.774;15.892;2024-03-23T13:03:43;8;8;5
83597;PMS5003;73565;45.774;15.892;2024-03-23T13:05:43;5;5;4
83597;PMS5003;73565;45.774;15.892;2024-03-23T13:07:43;6;6;5
83597;PMS5003;73565;45.774;15.892;2024-03-23T13:09:43;3;3;3
83597;PMS5003;73565;45.774;15.892;2024-03-23T13:11:43;5;5;4
83597;PMS5003;73565;45.774;15.892;2024-03-23T13:13:43;5;5;5
83597;PMS5003;73565;45.774;15.892;2024-03-23T13:15:43;7;6;5
83597;PMS5003;73565;45.774;15.892;2024-03-23T13:17:43;7;7;6
83597;PMS5003;73565;45.774;15.892;2024-03-23T13:19:43;5;5;5
83597;PMS5003;73565;45.774;15.892;2024-03-23T13:21:43;5;5;4
83597;PMS5003;73565;45.774;15.892;2024-03-23T13:23:43;6;6;6
83597;PMS5003;73565;45.774;15.892;2024-03-23T13:25:43;6;5;5
83597;PMS5003;73565;45.774;15.892;2024-03-23T13:27:43;8;8;7
83597;PMS5003;73565;45.774;15.892;2024-03-23T13:29:43;5;5;5
83597;PMS5003;73565;45.774;15.892;2024-03-23T13:31:43;4;4;4
83597;PMS5003;73565;45.774;15.892;2024-03-23T13:33:43;6;6;5
83597;PMS5003;73565;45.774;15.892;2024-03-23T13:35:43;7;7;6
83597;PMS5003;73565;45.774;15.892;2024-03-23T13:37:43;7;7;6
83597;PMS5003;73565;45.774;15.892;2024-03-23T13:39:43;5;5;4
83597;PMS5003;73565;45.774;15.892;2024-03-23T13:41:43;6;6;5
83597;PMS5003;73565;45.774;15.892;2024-03-23T13:43:43;7;7;5
83597;PMS5003;73565;45.774;15.892;2024-03-23T13:45:43;4;4;4
83597;PMS5003;73565;45.774;15.892;2024-03-23T13:47:43;7;7;6
83597;PMS5003;73565;45.774;15.892;2024-03-23T13:49:43;8;7;6
83597;PMS5003;73565;45.774;15.892;2024-03-23T13:51:43;7;7;6
83597;PMS5003;73565;45.774;15.892;2024-03-23T13:53:43;9;9;8
83597;PMS5003;73565;45.774;15.892;2024-03-23T13:55:47;7;7;5
83597;PMS5003;73565;45.774;15.892;2024-03-23T13:57:43;7;7;6
83597;PMS5003;73565;45.774;15.892;2024-03-23T13:59:43;5;5;4
83597;PMS5003;73565;45.774;15.892;2024-03-23T14:01:43;6;6;5
83597;PMS5003;73565;45.774;15.892;2024-03-23T14:03:43;6;6;5
83597;PMS5003;73565;45.774;15.892;2024-03-23T14:05:43;5;5;4
83597;PMS5003;73565;45.774;15.892;2024-03-23T14:07:43;6;6;5